Time;durP1;ratioP1;P1;durP2;ratioP2;P2;SDS_P1;SDS_P2;PMS_P1;PMS_P2;Temp;Humidity;BMP_temperature;BMP_pressure;BME280_temperature;BME280_humidity;BME280_pressure;Samples;Min_cycle;Max_cycle;Signal;HPM_P1;HPM_P2
2023/03/08 00:00:14;;;;;;;4.60;2.88;;;1.40;99.90;;;;;;5032892;28;20545;-58
2023/03/08 00:03:01;;;;;;;4.22;3.08;;;1.40;99.90;;;;;;5034428;28;20029;-56
2023/03/08 00:05:47;;;;;;;4.78;3.30;;;1.50;99.90;;;;;;5034443;28;20048;-60
2023/03/08 00:08:33;;;;;;;4.97;3.50;;;1.40;99.90;;;;;;5033205;28;20045;-59
2023/03/08 00:11:19;;;;;;;5.10;3.42;;;1.50;99.90;;;;;;5032527;28;20104;-58
2023/03/08 00:14:05;;;;;;;5.10;3.97;;;1.40;99.90;;;;;;5019024;28;20033;-59
2023/03/08 00:16:51;;;;;;;5.50;4.05;;;1.50;99.90;;;;;;5031932;28;20128;-54
2023/03/08 00:19:37;;;;;;;6.30;4.63;;;1.50;99.90;;;;;;5019682;28;20037;-61
2023/03/08 00:22:23;;;;;;;5.55;4.28;;;1.50;99.90;;;;;;5032231;28;20026;-56
2023/03/08 00:25:10;;;;;;;7.50;4.50;;;1.40;99.90;;;;;;5013560;28;20373;-58
2023/03/08 00:27:56;;;;;;;5.55;4.35;;;1.40;99.90;;;;;;5021751;28;20088;-58
2023/03/08 00:30:42;;;;;;;6.50;4.50;;;1.40;99.90;;;;;;5024286;28;20022;-55
2023/03/08 00:33:29;;;;;;;5.70;4.13;;;1.40;99.90;;;;;;5032409;28;20077;-57
2023/03/08 00:36:17;;;;;;;6.35;4.22;;;1.50;99.90;;;;;;5032481;28;20029;-60
2023/03/08 00:39:03;;;;;;;6.88;4.80;;;1.50;99.90;;;;;;5031855;28;20486;-58
2023/03/08 00:41:49;;;;;;;7.82;5.00;;;1.50;99.90;;;;;;5032219;28;20124;-59
2023/03/08 00:44:35;;;;;;;5.57;4.43;;;1.50;99.90;;;;;;5032078;28;20080;-55
2023/03/08 00:47:21;;;;;;;6.30;4.82;;;1.50;99.90;;;;;;5032083;28;20064;-56
2023/03/08 00:50:08;;;;;;;7.45;5.07;;;1.50;99.90;;;;;;5031293;28;20021;-57
2023/03/08 00:52:54;;;;;;;7.93;5.65;;;1.60;99.90;;;;;;5033288;28;20033;-57
2023/03/08 00:55:53;;;;;;;7.63;5.50;;;1.60;99.90;;;;;;5032389;28;20025;-60
2023/03/08 00:58:40;;;;;;;7.78;5.43;;;1.70;99.90;;;;;;5032606;28;20508;-57
2023/03/08 01:01:26;;;;;;;7.90;6.03;;;1.70;99.90;;;;;;5032406;28;20669;-59
2023/03/08 01:04:12;;;;;;;8.70;5.47;;;1.80;99.90;;;;;;5017617;28;20021;-59
2023/03/08 01:06:58;;;;;;;6.72;5.47;;;1.60;99.90;;;;;;5031838;28;20026;-57
2023/03/08 01:09:44;;;;;;;7.97;5.85;;;1.70;99.90;;;;;;5028645;28;20026;-57
2023/03/08 01:12:34;;;;;;;9.02;6.50;;;1.60;99.90;;;;;;5028583;28;20026;-55
2023/03/08 01:15:20;;;;;;;8.00;6.18;;;1.60;99.90;;;;;;5024263;28;20029;-57
2023/03/08 01:18:06;;;;;;;9.45;5.85;;;1.70;99.90;;;;;;5011042;28;20021;-59
2023/03/08 01:21:00;;;;;;;8.90;6.63;;;1.70;99.90;;;;;;5030946;28;20028;-60
2023/03/08 01:23:47;;;;;;;10.27;7.05;;;1.60;99.90;;;;;;5032126;28;20108;-58
2023/03/08 01:26:32;;;;;;;8.90;6.28;;;1.60;99.90;;;;;;5029592;28;20145;-53
2023/03/08 01:29:18;;;;;;;7.78;6.32;;;1.50;99.90;;;;;;5027859;28;20105;-60
2023/03/08 01:32:05;;;;;;;10.10;7.13;;;1.50;99.90;;;;;;5012662;28;20061;-59
2023/03/08 01:34:51;;;;;;;9.40;7.30;;;1.50;99.90;;;;;;5031983;28;20029;-57
2023/03/08 01:37:36;;;;;;;8.55;6.63;;;1.50;99.90;;;;;;5032032;28;20036;-58
2023/03/08 01:40:22;;;;;;;9.98;7.05;;;1.50;99.90;;;;;;5031794;28;20421;-58
2023/03/08 01:43:41;;;;;;;9.40;7.22;;;1.60;99.90;;;;;;5016957;28;20069;-59
2023/03/08 01:46:33;;;;;;;9.50;5.90;;;1.60;99.90;;;;;;4985188;28;20430;-58
2023/03/08 01:49:24;;;;;;;8.25;6.38;;;1.50;99.90;;;;;;5031703;28;20017;-56
2023/03/08 01:52:27;;;;;;;9.82;6.32;;;1.40;99.90;;;;;;5033782;28;20037;-56
2023/03/08 01:55:14;;;;;;;9.10;6.90;;;1.50;99.90;;;;;;5032902;28;20108;-55
2023/03/08 01:58:00;;;;;;;9.45;7.28;;;1.60;99.90;;;;;;5031813;28;20064;-59
2023/03/08 02:00:46;;;;;;;10.35;7.20;;;1.60;99.90;;;;;;5032194;28;20064;-55
2023/03/08 02:03:32;;;;;;;9.32;7.32;;;1.50;99.90;;;;;;5031994;28;20029;-56
2023/03/08 02:06:19;;;;;;;9.07;6.70;;;1.60;99.90;;;;;;5031598;28;20030;-57
2023/03/08 02:09:05;;;;;;;10.80;7.63;;;1.60;99.90;;;;;;5032663;28;20092;-56
2023/03/08 02:11:53;;;;;;;9.25;7.65;;;1.60;99.90;;;;;;5032197;28;20053;-60
2023/03/08 02:14:42;;;;;;;10.07;7.10;;;1.70;99.90;;;;;;5031392;28;20486;-58
2023/03/08 02:17:28;;;;;;;8.15;6.82;;;1.80;99.90;;;;;;5030897;28;20049;-59
2023/03/08 02:20:19;;;;;;;8.77;6.20;;;1.80;99.90;;;;;;5016394;28;20435;-57
2023/03/08 02:23:20;;;;;;;9.20;6.60;;;1.70;99.90;;;;;;5031344;28;20108;-56
2023/03/08 02:26:07;;;;;;;9.52;6.68;;;1.70;99.90;;;;;;5031784;28;20072;-56
2023/03/08 02:28:53;;;;;;;9.50;7.30;;;1.70;99.90;;;;;;5031092;28;20018;-54
2023/03/08 02:31:39;;;;;;;10.13;7.55;;;1.70;99.90;;;;;;5030956;28;20033;-55
2023/03/08 02:34:25;;;;;;;7.47;6.25;;;1.80;99.90;;;;;;5030934;28;20032;-60
2023/03/08 02:37:11;;;;;;;7.20;5.50;;;1.70;99.90;;;;;;5030750;28;20044;-60
2023/03/08 02:39:57;;;;;;;7.03;5.30;;;1.60;99.90;;;;;;5030603;28;20030;-58
2023/03/08 02:42:43;;;;;;;7.57;5.22;;;1.50;99.90;;;;;;5017217;28;20039;-59
2023/03/08 02:45:30;;;;;;;5.72;4.70;;;1.50;99.90;;;;;;5030908;28;20026;-56
2023/03/08 02:48:17;;;;;;;8.25;5.72;;;1.40;99.90;;;;;;5030482;28;20018;-51
2023/03/08 02:51:03;;;;;;;6.13;5.05;;;1.50;99.90;;;;;;5031379;28;20071;-57
2023/03/08 02:53:49;;;;;;;8.13;5.50;;;1.60;99.90;;;;;;5016641;28;20032;-55
2023/03/08 02:56:36;;;;;;;6.75;5.03;;;1.70;99.90;;;;;;5030474;28;20506;-58
2023/03/08 02:59:22;;;;;;;6.13;4.30;;;1.80;99.90;;;;;;5031255;28;20083;-59
2023/03/08 03:02:08;;;;;;;6.57;5.05;;;1.60;99.90;;;;;;5031136;28;20032;-59
2023/03/08 03:04:54;;;;;;;5.30;4.55;;;1.60;99.90;;;;;;5016526;28;20030;-55
2023/03/08 03:07:41;;;;;;;5.68;4.43;;;1.60;99.90;;;;;;5034153;28;20030;-60
2023/03/08 03:10:27;;;;;;;5.60;3.95;;;1.50;99.90;;;;;;5035426;28;20025;-54
2023/03/08 03:13:13;;;;;;;6.70;4.90;;;1.60;99.90;;;;;;5035271;28;20037;-55
2023/03/08 03:16:06;;;;;;;6.47;5.00;;;1.60;99.90;;;;;;5034480;28;20029;-54
2023/03/08 03:18:53;;;;;;;5.85;4.43;;;1.60;99.90;;;;;;5035133;28;20021;-52
2023/03/08 03:21:40;;;;;;;6.15;4.80;;;1.50;99.90;;;;;;5019624;28;20030;-52
2023/03/08 03:24:26;;;;;;;6.57;5.55;;;1.50;99.90;;;;;;5019610;28;20104;-52
2023/03/08 03:27:12;;;;;;;7.47;4.97;;;1.40;99.90;;;;;;5020449;28;20032;-52
2023/03/08 03:29:58;;;;;;;9.73;5.63;;;1.40;99.90;;;;;;5034414;28;20030;-51
2023/03/08 03:32:43;;;;;;;6.97;5.18;;;1.40;99.90;;;;;;5020306;28;20026;-53
2023/03/08 03:35:29;;;;;;;5.78;4.63;;;1.30;99.90;;;;;;5034361;28;20129;-53
2023/03/08 03:38:15;;;;;;;6.93;5.10;;;1.30;99.90;;;;;;5034040;28;20037;-52
2023/03/08 03:41:06;;;;;;;7.03;5.20;;;1.40;99.90;;;;;;5034846;28;20409;-55
2023/03/08 03:43:52;;;;;;;6.47;4.88;;;1.30;99.90;;;;;;5034534;28;20038;-54
2023/03/08 03:46:38;;;;;;;9.27;5.05;;;1.50;99.90;;;;;;5033669;28;20029;-52
2023/03/08 03:49:24;;;;;;;5.97;4.50;;;1.50;99.90;;;;;;5034079;28;20021;-55
2023/03/08 03:52:10;;;;;;;8.20;5.10;;;1.40;99.90;;;;;;5034426;28;20132;-56
2023/03/08 03:54:56;;;;;;;7.13;4.72;;;1.30;99.90;;;;;;5034364;28;20045;-52
2023/03/08 03:57:42;;;;;;;5.35;4.45;;;1.30;99.90;;;;;;5033592;28;20116;-53
2023/03/08 04:00:28;;;;;;;5.82;4.82;;;1.30;99.90;;;;;;5034290;28;20030;-52
2023/03/08 04:03:14;;;;;;;8.18;5.55;;;1.20;99.90;;;;;;5034068;28;20032;-56
2023/03/08 04:06:13;;;;;;;6.55;4.97;;;1.10;99.90;;;;;;5033365;28;20033;-56
2023/03/08 04:09:04;;;;;;;11.27;5.32;;;1.00;99.90;;;;;;5023393;28;20022;-57
2023/03/08 04:11:50;;;;;;;8.63;5.60;;;1.00;99.90;;;;;;5000388;28;20084;-59
2023/03/08 04:14:38;;;;;;;8.45;5.72;;;1.10;99.90;;;;;;5013712;28;20030;-55
2023/03/08 04:17:24;;;;;;;7.60;5.55;;;1.20;99.90;;;;;;5012644;28;20068;-57
2023/03/08 04:20:10;;;;;;;8.43;5.80;;;1.20;99.90;;;;;;5013655;28;20034;-55
2023/03/08 04:22:56;;;;;;;7.90;5.78;;;1.30;99.90;;;;;;5014071;28;20030;-58
2023/03/08 04:25:42;;;;;;;8.55;5.10;;;1.40;99.90;;;;;;5013399;28;20022;-56
2023/03/08 04:28:28;;;;;;;7.53;5.57;;;1.40;99.90;;;;;;4998989;28;20113;-53
2023/03/08 04:31:14;;;;;;;6.88;5.60;;;1.40;99.90;;;;;;5019404;28;20573;-55
2023/03/08 04:34:01;;;;;;;8.60;6.03;;;1.40;99.90;;;;;;5032835;28;20432;-59
2023/03/08 04:36:47;;;;;;;12.55;5.75;;;1.30;99.90;;;;;;5031999;28;20414;-58
2023/03/08 04:39:33;;;;;;;8.68;5.90;;;1.30;99.90;;;;;;5033097;28;20076;-55
2023/03/08 04:42:19;;;;;;;9.02;5.28;;;1.30;99.90;;;;;;5015676;28;20083;-59
2023/03/08 04:45:06;;;;;;;6.90;5.03;;;1.40;99.90;;;;;;5018658;28;20017;-59
2023/03/08 04:47:52;;;;;;;7.40;5.78;;;1.30;99.90;;;;;;5032184;28;20045;-60
2023/03/08 04:50:38;;;;;;;6.88;5.55;;;1.10;99.90;;;;;;5032759;28;20021;-61
2023/03/08 04:53:25;;;;;;;5.95;4.78;;;1.20;99.90;;;;;;5032708;28;20382;-61
2023/03/08 04:56:13;;;;;;;7.97;5.55;;;1.10;99.90;;;;;;5032795;28;20029;-60
2023/03/08 04:58:59;;;;;;;7.68;4.80;;;1.10;99.90;;;;;;5033242;28;20026;-58
2023/03/08 05:01:45;;;;;;;7.65;5.22;;;1.00;99.90;;;;;;5032053;28;20448;-58
2023/03/08 05:04:31;;;;;;;14.57;5.60;;;1.00;99.90;;;;;;5017561;28;20049;-61
2023/03/08 05:07:17;;;;;;;6.97;5.22;;;1.00;99.90;;;;;;5031786;28;20064;-60
2023/03/08 05:10:03;;;;;;;8.32;5.68;;;1.00;99.90;;;;;;5031491;28;20032;-61
2023/03/08 05:12:49;;;;;;;10.35;6.00;;;1.00;99.90;;;;;;5033058;28;20099;-61
2023/03/08 05:15:35;;;;;;;7.65;5.88;;;1.00;99.90;;;;;;5018160;28;20037;-61
2023/03/08 05:18:20;;;;;;;8.50;5.95;;;1.10;99.90;;;;;;5031901;28;20037;-61
2023/03/08 05:21:11;;;;;;;9.93;6.13;;;1.10;99.90;;;;;;5031130;28;20033;-60
2023/03/08 05:23:59;;;;;;;10.48;6.70;;;1.00;99.90;;;;;;5032641;28;20030;-60
2023/03/08 05:26:45;;;;;;;10.45;6.78;;;1.00;99.90;;;;;;5031221;28;20082;-61
2023/03/08 05:29:30;;;;;;;9.23;6.63;;;1.10;99.90;;;;;;5030693;28;20494;-62
2023/03/08 05:32:16;;;;;;;10.70;6.53;;;1.10;99.90;;;;;;5032057;28;20128;-62
2023/03/08 05:35:02;;;;;;;9.88;6.57;;;1.20;99.90;;;;;;5030747;28;20025;-63
2023/03/08 05:37:48;;;;;;;14.88;7.03;;;1.30;99.90;;;;;;5032165;28;20037;-58
2023/03/08 05:40:36;;;;;;;9.52;6.40;;;1.30;99.90;;;;;;5031815;28;20041;-60
2023/03/08 05:43:22;;;;;;;9.65;7.25;;;1.40;99.90;;;;;;5012522;28;20022;-61
2023/03/08 05:46:11;;;;;;;11.20;6.78;;;1.50;99.90;;;;;;5022841;28;20034;-59
2023/03/08 05:48:57;;;;;;;9.77;6.78;;;1.60;99.90;;;;;;5031137;28;20084;-61
2023/03/08 05:51:43;;;;;;;8.85;6.47;;;1.60;99.90;;;;;;5029202;28;20049;-62
2023/03/08 05:54:29;;;;;;;10.20;6.82;;;1.60;99.90;;;;;;5031269;28;20083;-63
2023/03/08 05:57:15;;;;;;;20.20;11.82;;;1.60;99.90;;;;;;5030814;28;20021;-58
2023/03/08 06:00:03;;;;;;;12.75;7.80;;;1.70;99.90;;;;;;5016534;28;20052;-62
2023/03/08 06:02:49;;;;;;;12.95;7.50;;;1.80;99.90;;;;;;5030782;28;20061;-59
2023/03/08 06:05:35;;;;;;;11.63;7.85;;;1.80;99.90;;;;;;5030946;28;20033;-55
2023/03/08 06:08:21;;;;;;;14.63;10.73;;;1.90;99.90;;;;;;5031794;28;20478;-57
2023/03/08 06:11:07;;;;;;;12.82;8.95;;;1.90;99.90;;;;;;5012203;28;20673;-55
2023/03/08 06:13:54;;;;;;;12.35;8.32;;;1.90;99.90;;;;;;5021677;28;20510;-54
2023/03/08 06:16:39;;;;;;;11.57;7.82;;;2.00;99.90;;;;;;5030596;28;20048;-57
2023/03/08 06:19:25;;;;;;;12.50;8.77;;;2.00;99.90;;;;;;5017113;28;20083;-57
2023/03/08 06:22:14;;;;;;;13.90;8.35;;;2.00;99.90;;;;;;5031794;28;20029;-56
2023/03/08 06:25:00;;;;;;;14.00;8.20;;;2.00;99.90;;;;;;5016776;28;20029;-57
2023/03/08 06:27:46;;;;;;;15.77;9.50;;;2.00;99.90;;;;;;5030929;28;20029;-57
2023/03/08 06:30:32;;;;;;;17.45;11.25;;;2.00;99.90;;;;;;5011433;28;20049;-57
2023/03/08 06:33:20;;;;;;;18.67;11.93;;;2.00;99.90;;;;;;5014476;28;20109;-54
2023/03/08 06:36:11;;;;;;;24.52;12.95;;;2.00;99.90;;;;;;5031084;28;20108;-57
2023/03/08 06:38:58;;;;;;;17.60;10.95;;;2.10;99.90;;;;;;5031145;28;20465;-55
2023/03/08 06:41:44;;;;;;;16.08;9.82;;;2.10;99.90;;;;;;5031277;28;20034;-59
2023/03/08 06:44:30;;;;;;;13.45;9.63;;;2.10;99.90;;;;;;5031073;28;20026;-57
2023/03/08 06:47:16;;;;;;;17.80;12.55;;;2.20;99.90;;;;;;5030748;28;20018;-58
2023/03/08 06:50:02;;;;;;;26.85;16.65;;;2.20;99.90;;;;;;5032851;28;20498;-54
2023/03/08 06:52:48;;;;;;;27.00;11.73;;;2.40;99.90;;;;;;5030902;28;20068;-57
2023/03/08 06:55:35;;;;;;;16.17;10.65;;;2.40;99.90;;;;;;5030853;28;20025;-56
2023/03/08 06:58:21;;;;;;;14.98;9.23;;;2.50;99.90;;;;;;5031318;28;20092;-57
2023/03/08 07:01:08;;;;;;;15.40;9.32;;;2.50;99.90;;;;;;5031252;28;20033;-54
2023/03/08 07:03:54;;;;;;;15.30;11.00;;;2.70;99.90;;;;;;5031492;28;20032;-57
2023/03/08 07:06:40;;;;;;;15.50;10.35;;;2.80;99.90;;;;;;5028973;28;20030;-55
2023/03/08 07:09:26;;;;;;;19.58;11.68;;;2.80;99.90;;;;;;5031497;28;20034;-57
2023/03/08 07:12:12;;;;;;;29.10;12.80;;;2.90;99.90;;;;;;5031605;28;20577;-56
2023/03/08 07:14:58;;;;;;;32.55;15.10;;;2.90;99.90;;;;;;5030358;28;20520;-55
2023/03/08 07:17:45;;;;;;;25.90;15.02;;;3.00;99.90;;;;;;5031407;28;20509;-56
2023/03/08 07:20:31;;;;;;;29.33;15.98;;;3.00;99.90;;;;;;5031307;28;20022;-52
2023/03/08 07:23:17;;;;;;;30.75;17.08;;;3.00;99.90;;;;;;5036537;28;20037;-57
2023/03/08 07:26:07;;;;;;;30.73;15.25;;;3.10;99.90;;;;;;5043186;28;20033;-59
2023/03/08 07:28:54;;;;;;;21.80;12.70;;;3.10;99.90;;;;;;5045084;28;20026;-59
2023/03/08 07:31:40;;;;;;;21.83;12.02;;;3.10;99.90;;;;;;5037089;28;20040;-57
2023/03/08 07:34:26;;;;;;;24.25;14.27;;;3.10;99.90;;;;;;5028314;28;20085;-56
2023/03/08 07:37:13;;;;;;;20.98;14.38;;;3.20;99.90;;;;;;5022345;28;20030;-57
2023/03/08 07:39:59;;;;;;;25.55;13.60;;;3.20;99.90;;;;;;5020527;28;20033;-59
2023/03/08 07:42:45;;;;;;;21.05;12.52;;;3.20;99.90;;;;;;5032802;28;20028;-61
2023/03/08 07:45:31;;;;;;;22.80;13.25;;;3.20;99.90;;;;;;5029040;28;20058;-58
2023/03/08 07:48:17;;;;;;;18.98;13.05;;;3.30;99.90;;;;;;5030049;28;20112;-58
2023/03/08 07:51:06;;;;;;;24.85;14.75;;;3.40;99.90;;;;;;5029889;28;20036;-56
2023/03/08 07:53:52;;;;;;;34.53;16.55;;;3.50;99.90;;;;;;5034353;28;20022;-59
2023/03/08 07:56:38;;;;;;;25.90;15.38;;;3.50;99.90;;;;;;5032275;28;20033;-55
2023/03/08 07:59:24;;;;;;;29.67;17.48;;;3.50;99.90;;;;;;5033750;28;20113;-59
2023/03/08 08:02:13;;;;;;;36.63;18.38;;;3.50;99.90;;;;;;5033617;28;20038;-60
2023/03/08 08:05:00;;;;;;;35.53;17.02;;;3.60;99.90;;;;;;5032659;28;20018;-57
2023/03/08 08:07:46;;;;;;;39.10;18.60;;;3.70;99.90;;;;;;5021836;28;20103;-57
2023/03/08 08:10:32;;;;;;;30.83;17.92;;;3.70;99.90;;;;;;5017621;28;20099;-59
2023/03/08 08:13:18;;;;;;;42.05;18.65;;;3.80;99.90;;;;;;5033453;28;20108;-59
2023/03/08 08:16:06;;;;;;;26.23;15.88;;;3.90;99.90;;;;;;5031320;28;20497;-57
2023/03/08 08:18:52;;;;;;;28.63;15.90;;;4.00;99.90;;;;;;5020947;28;20026;-61
2023/03/08 08:21:38;;;;;;;28.25;15.88;;;4.10;99.90;;;;;;5026059;28;20037;-61
2023/03/08 08:24:24;;;;;;;31.33;14.90;;;4.10;99.90;;;;;;5021757;28;20108;-60
2023/03/08 08:27:10;;;;;;;27.80;15.85;;;4.10;99.90;;;;;;5022264;28;20030;-59
2023/03/08 08:29:56;;;;;;;22.40;14.00;;;4.10;99.90;;;;;;5032449;28;20029;-60
2023/03/08 08:32:42;;;;;;;27.30;15.38;;;4.10;99.90;;;;;;5014061;28;20026;-57
2023/03/08 08:35:27;;;;;;;23.60;15.77;;;4.20;99.90;;;;;;5020855;28;20034;-57
2023/03/08 08:38:13;;;;;;;22.30;14.80;;;4.20;99.90;;;;;;5013881;28;20026;-57
2023/03/08 08:41:01;;;;;;;22.25;16.02;;;4.30;99.90;;;;;;5033209;28;20026;-58
2023/03/08 08:43:47;;;;;;;21.98;15.32;;;4.30;99.90;;;;;;5032880;28;20080;-59
2023/03/08 08:46:34;;;;;;;24.92;15.48;;;4.30;99.90;;;;;;5028631;28;20109;-59
2023/03/08 08:49:19;;;;;;;23.30;16.00;;;4.30;99.90;;;;;;5019107;28;20449;-59
2023/03/08 08:52:06;;;;;;;21.73;14.82;;;4.40;99.90;;;;;;5028655;28;20108;-59
2023/03/08 08:54:52;;;;;;;21.42;14.85;;;4.30;99.90;;;;;;5020393;28;20025;-59
2023/03/08 08:57:38;;;;;;;21.88;14.23;;;4.40;99.90;;;;;;5010276;28;20473;-57
2023/03/08 09:00:25;;;;;;;21.52;13.13;;;4.40;99.90;;;;;;4988551;28;20406;-58
2023/03/08 09:03:11;;;;;;;22.02;13.65;;;4.30;99.90;;;;;;5023061;28;20376;-60
2023/03/08 09:05:58;;;;;;;18.38;13.82;;;4.30;99.90;;;;;;5017894;28;20029;-57
2023/03/08 09:08:44;;;;;;;19.83;14.07;;;4.40;99.90;;;;;;5022733;28;20519;-55
2023/03/08 09:11:31;;;;;;;19.35;13.55;;;4.50;99.90;;;;;;5020807;28;20030;-59
2023/03/08 09:14:17;;;;;;;19.35;13.27;;;4.40;99.90;;;;;;5015325;28;20076;-57
2023/03/08 09:17:05;;;;;;;18.83;13.15;;;4.50;99.90;;;;;;5029236;28;20390;-61
2023/03/08 09:19:51;;;;;;;19.17;14.10;;;4.50;99.90;;;;;;5031385;28;20030;-61
2023/03/08 09:22:37;;;;;;;21.80;14.35;;;4.50;99.90;;;;;;5026640;28;20061;-57
2023/03/08 09:25:23;;;;;;;19.83;12.80;;;4.40;99.90;;;;;;5020647;28;20141;-59
2023/03/08 09:28:11;;;;;;;20.90;14.13;;;4.30;99.90;;;;;;5023741;28;20041;-58
2023/03/08 09:30:57;;;;;;;19.92;13.73;;;4.20;99.90;;;;;;5028336;28;20026;-57
2023/03/08 09:33:46;;;;;;;19.55;12.95;;;4.20;99.90;;;;;;5029447;28;20506;-61
2023/03/08 09:36:31;;;;;;;18.58;12.57;;;4.30;99.90;;;;;;5025688;28;20025;-56
2023/03/08 09:39:17;;;;;;;18.83;14.13;;;4.30;99.90;;;;;;5021017;28;20049;-58
2023/03/08 09:42:05;;;;;;;38.45;16.95;;;4.30;99.90;;;;;;5020136;28;20026;-59
2023/03/08 09:45:12;;;;;;;41.53;18.02;;;4.20;99.90;;;;;;5021542;28;20049;-60
2023/03/08 09:48:12;;;;;;;26.88;17.95;;;4.00;99.90;;;;;;5011290;28;20026;-61
2023/03/08 09:51:03;;;;;;;25.95;15.38;;;3.80;99.90;;;;;;5012156;28;20434;-56
2023/03/08 09:53:59;;;;;;;21.35;13.45;;;3.70;99.90;;;;;;5011596;28;20022;-61
2023/03/08 09:56:48;;;;;;;19.17;13.45;;;3.70;99.90;;;;;;5015730;28;20021;-60
2023/03/08 09:59:52;;;;;;;21.67;13.95;;;3.70;99.90;;;;;;5032328;28;20021;-60
2023/03/08 10:03:01;;;;;;;19.92;13.35;;;3.70;99.90;;;;;;5001574;28;20071;-61
2023/03/08 10:06:18;;;;;;;19.80;12.00;;;3.70;99.90;;;;;;5031257;28;20406;-62
2023/03/08 10:09:30;;;;;;;16.08;11.70;;;3.70;99.90;;;;;;5019959;28;20029;-62
2023/03/08 10:12:29;;;;;;;15.52;10.52;;;3.70;99.90;;;;;;5025106;28;20033;-62
2023/03/08 10:15:19;;;;;;;16.08;9.90;;;3.70;99.90;;;;;;5027317;28;20482;-58
2023/03/08 10:18:25;;;;;;;15.20;10.05;;;3.70;99.90;;;;;;5027765;28;20087;-63
2023/03/08 10:21:16;;;;;;;12.75;9.15;;;3.80;99.90;;;;;;5027493;28;20040;-62
2023/03/08 10:24:34;;;;;;;15.07;9.88;;;3.80;99.90;;;;;;5011249;28;20034;-64
2023/03/08 10:27:24;;;;;;;12.55;8.57;;;3.80;99.90;;;;;;5019181;28;20024;-63
2023/03/08 10:30:18;;;;;;;11.77;8.77;;;3.70;99.90;;;;;;5011978;28;20116;-63
2023/03/08 10:33:09;;;;;;;11.45;8.55;;;3.80;99.90;;;;;;5025792;28;20048;-61
2023/03/08 10:35:58;;;;;;;13.00;9.02;;;3.90;99.90;;;;;;5022971;28;20549;-62
2023/03/08 10:39:05;;;;;;;13.73;8.15;;;3.90;99.90;;;;;;5028964;28;20029;-59
2023/03/08 10:41:56;;;;;;;10.95;6.65;;;3.90;99.90;;;;;;5012428;28;20038;-62
2023/03/08 10:45:02;;;;;;;8.07;6.20;;;3.80;99.90;;;;;;5013131;28;20034;-64
2023/03/08 10:48:03;;;;;;;5.95;4.50;;;3.90;99.90;;;;;;5025373;28;20029;-64
2023/03/08 10:51:01;;;;;;;10.82;5.68;;;3.80;99.90;;;;;;5026647;28;20037;-65
2023/03/08 10:54:01;;;;;;;7.65;6.53;;;3.60;99.90;;;;;;5025710;28;20041;-62
2023/03/08 10:56:59;;;;;;;9.50;6.22;;;3.40;99.90;;;;;;5012793;28;20541;-62
2023/03/08 10:59:49;;;;;;;8.93;6.05;;;3.60;99.90;;;;;;5027524;28;20029;-65
2023/03/08 11:02:34;;;;;;;8.20;6.03;;;3.70;99.90;;;;;;5025014;28;20021;-62
2023/03/08 11:05:25;;;;;;;9.32;6.20;;;3.70;99.90;;;;;;5021402;28;20033;-61
2023/03/08 11:08:21;;;;;;;13.55;7.28;;;3.80;99.90;;;;;;5026107;28;20051;-63
2023/03/08 11:11:11;;;;;;;;;;;3.80;99.90;;;;;;5024452;28;20030;-59
2023/03/08 11:13:57;;;;;;;10.35;7.25;;;3.80;99.90;;;;;;5022897;28;19939;-61
2023/03/08 11:17:12;;;;;;;11.18;6.80;;;3.80;99.90;;;;;;5021367;28;20422;-61
2023/03/08 11:20:14;;;;;;;6.68;5.35;;;3.70;99.90;;;;;;5029861;28;20056;-64
2023/03/08 11:23:17;;;;;;;69.70;43.90;;;3.60;99.90;;;;;;5017668;28;20028;-59
2023/03/08 11:26:12;;;;;;;27.23;17.55;;;3.60;99.90;;;;;;5030468;28;20021;-63
2023/03/08 11:29:39;;;;;;;11.43;5.63;;;3.70;99.90;;;;;;5021864;28;20029;-58
2023/03/08 11:32:53;;;;;;;11.68;7.43;;;3.50;99.90;;;;;;4942247;28;20505;-61
2023/03/08 11:36:11;;;;;;;9.77;6.35;;;3.40;99.90;;;;;;4936466;29;20131;-61
2023/03/08 11:39:25;;;;;;;8.50;5.65;;;3.40;99.90;;;;;;5015122;28;20375;-62
2023/03/08 11:42:40;;;;;;;7.80;5.75;;;3.40;99.90;;;;;;5022785;28;20044;-60
2023/03/08 11:45:29;;;;;;;6.85;5.13;;;3.30;99.90;;;;;;5033874;28;20021;-63
2023/03/08 11:48:50;;;;;;;7.72;5.35;;;3.20;99.90;;;;;;5033792;28;20029;-62
2023/03/08 11:51:43;;;;;;;7.88;5.53;;;3.30;99.90;;;;;;4999875;28;20041;-63
2023/03/08 11:54:58;;;;;;;7.85;5.50;;;3.30;99.90;;;;;;5019888;28;20833;-60
2023/03/08 11:57:49;;;;;;;8.48;6.15;;;3.30;99.90;;;;;;5033930;28;20021;-62
2023/03/08 12:00:38;;;;;;;7.72;5.28;;;3.30;99.90;;;;;;5014133;28;20030;-62
2023/03/08 12:03:39;;;;;;;7.63;4.75;;;3.30;99.90;;;;;;5020960;28;20017;-65
2023/03/08 12:06:30;;;;;;;6.22;4.28;;;3.30;99.90;;;;;;5033207;28;20034;-61
2023/03/08 12:09:21;;;;;;;6.18;4.75;;;3.20;99.90;;;;;;5014819;28;20068;-64
2023/03/08 12:12:17;;;;;;;7.30;5.57;;;3.30;99.90;;;;;;5024477;28;20029;-64
2023/03/08 12:15:22;;;;;;;8.15;5.55;;;3.20;99.90;;;;;;5019513;28;20519;-62
2023/03/08 12:18:28;;;;;;;13.95;8.38;;;3.20;99.90;;;;;;5030247;28;20025;-63
2023/03/08 12:21:37;;;;;;;16.52;9.82;;;3.20;99.90;;;;;;5015065;28;20080;-60
2023/03/08 12:25:14;;;;;;;8.50;5.78;;;3.20;99.90;;;;;;5033645;28;20486;-62
2023/03/08 12:28:29;;;;;;;8.13;5.93;;;3.30;99.90;;;;;;4935144;29;20031;-64
2023/03/08 12:31:43;;;;;;;11.07;5.43;;;3.40;99.90;;;;;;5024174;28;20040;-61
2023/03/08 12:34:43;;;;;;;8.85;6.32;;;3.40;99.90;;;;;;5034059;28;20084;-61
2023/03/08 12:37:29;;;;;;;8.45;6.55;;;3.40;99.90;;;;;;5010154;28;20513;-62
2023/03/08 12:40:35;;;;;;;6.30;5.18;;;3.50;99.90;;;;;;5006420;28;20387;-61
2023/03/08 12:43:21;;;;;;;7.40;5.22;;;3.50;99.90;;;;;;5018461;28;20025;-62
2023/03/08 12:46:09;;;;;;;6.55;5.18;;;3.50;99.90;;;;;;5010235;28;20061;-62
2023/03/08 12:48:55;;;;;;;5.97;5.20;;;3.60;99.90;;;;;;5032099;28;20490;-64
2023/03/08 12:51:41;;;;;;;8.57;5.90;;;3.60;99.90;;;;;;5033243;28;20108;-63
2023/03/08 12:54:31;;;;;;;7.70;6.45;;;3.60;99.90;;;;;;5019042;28;20584;-63
2023/03/08 12:57:22;;;;;;;6.18;5.35;;;3.90;99.90;;;;;;5031966;28;20026;-63
2023/03/08 13:00:34;;;;;;;5.82;5.18;;;4.00;99.90;;;;;;5032575;28;20033;-64
2023/03/08 13:03:20;;;;;;;6.13;4.90;;;4.10;99.90;;;;;;5017594;28;20029;-64
2023/03/08 13:06:40;;;;;;;5.40;4.30;;;4.10;99.90;;;;;;5015853;28;20037;-62
2023/03/08 13:09:36;;;;;;;4.00;3.60;;;4.00;99.90;;;;;;5030372;28;20037;-61
2023/03/08 13:12:38;;;;;;;4.15;3.55;;;3.80;99.90;;;;;;5032224;28;20030;-62
2023/03/08 13:15:25;;;;;;;5.25;4.38;;;3.60;99.90;;;;;;5003152;28;20463;-63
2023/03/08 13:18:18;;;;;;;5.20;4.50;;;3.40;99.90;;;;;;5013201;28;20030;-64
2023/03/08 13:21:37;;;;;;;5.57;4.90;;;3.30;99.90;;;;;;5012699;28;20022;-60
2023/03/08 13:24:53;;;;;;;6.07;5.20;;;3.30;99.90;;;;;;5018537;28;20033;-62
2023/03/08 13:27:56;;;;;;;6.88;5.50;;;3.30;99.90;;;;;;5017300;28;20025;-62
2023/03/08 13:30:52;;;;;;;7.93;5.57;;;3.30;99.90;;;;;;5032159;28;20033;-60
2023/03/08 13:33:43;;;;;;;8.88;6.35;;;3.20;99.90;;;;;;5031801;28;20129;-61
2023/03/08 13:36:31;;;;;;;8.07;6.65;;;3.30;99.90;;;;;;5016685;28;20444;-62
2023/03/08 13:39:28;;;;;;;8.55;6.55;;;3.40;99.90;;;;;;5031488;28;20030;-63
2023/03/08 13:42:14;;;;;;;8.05;6.65;;;3.50;99.90;;;;;;5019245;28;20030;-62
2023/03/08 13:45:09;;;;;;;10.27;7.38;;;3.50;99.90;;;;;;5022843;28;20024;-61
2023/03/08 13:47:58;;;;;;;11.27;7.75;;;3.50;99.90;;;;;;4996782;28;20036;-63
2023/03/08 13:50:49;;;;;;;10.38;7.90;;;3.40;99.90;;;;;;5023369;28;20087;-60
2023/03/08 13:53:36;;;;;;;10.50;8.32;;;3.30;99.90;;;;;;5029790;28;20034;-61
2023/03/08 13:56:25;;;;;;;9.98;8.30;;;3.30;99.90;;;;;;5027015;28;20080;-61
2023/03/08 13:59:19;;;;;;;10.75;8.73;;;3.30;99.90;;;;;;4999242;28;20021;-66
2023/03/08 14:02:29;;;;;;;12.80;9.82;;;3.30;99.90;;;;;;5015564;28;20098;-62
2023/03/08 14:05:21;;;;;;;12.38;9.80;;;3.30;99.90;;;;;;5026201;28;20024;-63
2023/03/08 14:08:18;;;;;;;13.77;9.90;;;3.20;99.90;;;;;;5015141;28;20021;-62
2023/03/08 14:11:07;;;;;;;14.27;10.40;;;3.20;99.90;;;;;;5028342;28;20040;-63
2023/03/08 14:13:55;;;;;;;15.30;11.02;;;3.20;99.90;;;;;;5026796;28;20040;-63
2023/03/08 14:16:42;;;;;;;17.85;12.63;;;3.20;99.90;;;;;;5027862;28;20018;-63
2023/03/08 14:19:32;;;;;;;16.88;12.25;;;3.20;99.90;;;;;;5028006;28;20044;-62
2023/03/08 14:22:19;;;;;;;18.38;12.25;;;3.30;99.90;;;;;;5024099;28;20034;-65
2023/03/08 14:25:06;;;;;;;17.73;13.60;;;3.40;99.90;;;;;;5027241;28;20115;-64
2023/03/08 14:27:52;;;;;;;18.50;12.48;;;3.40;99.90;;;;;;5026045;28;20029;-62
2023/03/08 14:30:46;;;;;;;16.02;11.68;;;3.40;99.90;;;;;;5023174;28;20517;-62
2023/03/08 14:33:32;;;;;;;15.98;12.15;;;3.40;99.90;;;;;;5012619;28;20030;-63
2023/03/08 14:36:18;;;;;;;17.45;12.90;;;3.30;99.90;;;;;;5028059;28;20068;-63
2023/03/08 14:39:04;;;;;;;16.08;12.65;;;3.30;99.90;;;;;;5029258;28;20430;-63
2023/03/08 14:41:50;;;;;;;16.60;12.65;;;3.20;99.90;;;;;;5028501;28;20138;-63
2023/03/08 14:44:36;;;;;;;15.70;12.68;;;3.20;99.90;;;;;;5029949;28;20117;-60
2023/03/08 14:47:28;;;;;;;15.80;12.75;;;3.10;99.90;;;;;;5026971;28;20018;-60
2023/03/08 14:50:13;;;;;;;17.77;12.52;;;3.10;99.90;;;;;;5023879;28;20056;-63